sensor_id;sensor_type;location;lat;lon;timestamp;pressure;altitude;pressure_sealevel;temperature;humidity
46045;BME280;31781;54.094;13.428;2023-03-19T00:01:04;101474.75;;;8.60;68.54
46045;BME280;31781;54.094;13.428;2023-03-19T00:03:06;101481.38;;;8.58;68.53
46045;BME280;31781;54.094;13.428;2023-03-19T00:05:08;101477.31;;;8.54;67.95
46045;BME280;31781;54.094;13.428;2023-03-19T00:07:11;101476.00;;;8.50;68.50
46045;BME280;31781;54.094;13.428;2023-03-19T00:09:13;101478.03;;;8.48;68.92
46045;BME280;31781;54.094;13.428;2023-03-19T00:11:16;101478.41;;;8.45;68.81
46045;BME280;31781;54.094;13.428;2023-03-19T00:13:19;101478.56;;;8.43;68.55
46045;BME280;31781;54.094;13.428;2023-03-19T00:15:20;101474.19;;;8.42;69.51
46045;BME280;31781;54.094;13.428;2023-03-19T00:17:22;101479.78;;;8.41;69.11
46045;BME280;31781;54.094;13.428;2023-03-19T00:19:27;101478.06;;;8.40;68.85
46045;BME280;31781;54.094;13.428;2023-03-19T00:21:29;101476.41;;;8.39;68.33
46045;BME280;31781;54.094;13.428;2023-03-19T00:23:31;101478.28;;;8.38;68.80
46045;BME280;31781;54.094;13.428;2023-03-19T00:25:32;101481.34;;;8.35;68.69
46045;BME280;31781;54.094;13.428;2023-03-19T00:27:36;101481.50;;;8.34;68.32
46045;BME280;31781;54.094;13.428;2023-03-19T00:29:38;101482.72;;;8.31;67.91
46045;BME280;31781;54.094;13.428;2023-03-19T00:31:41;101483.88;;;8.28;67.48
46045;BME280;31781;54.094;13.428;2023-03-19T00:33:43;101482.34;;;8.26;67.72
46045;BME280;31781;54.094;13.428;2023-03-19T00:35:45;101479.81;;;8.24;66.99
46045;BME280;31781;54.094;13.428;2023-03-19T00:37:47;101473.88;;;8.21;67.54
46045;BME280;31781;54.094;13.428;2023-03-19T00:39:49;101475.09;;;8.18;67.69
46045;BME280;31781;54.094;13.428;2023-03-19T00:41:51;101480.88;;;8.15;66.71
46045;BME280;31781;54.094;13.428;2023-03-19T00:43:55;101478.53;;;8.12;67.03
46045;BME280;31781;54.094;13.428;2023-03-19T00:45:57;101474.28;;;8.10;67.37
46045;BME280;31781;54.094;13.428;2023-03-19T00:47:59;101480.06;;;8.07;66.35
46045;BME280;31781;54.094;13.428;2023-03-19T00:50:01;101472.28;;;8.04;66.96
46045;BME280;31781;54.094;13.428;2023-03-19T00:52:03;101476.19;;;8.01;66.52
46045;BME280;31781;54.094;13.428;2023-03-19T00:54:05;101477.38;;;7.99;66.49
46045;BME280;31781;54.094;13.428;2023-03-19T00:56:07;101468.56;;;7.97;66.85
46045;BME280;31781;54.094;13.428;2023-03-19T00:58:09;101475.19;;;7.94;66.36
46045;BME280;31781;54.094;13.428;2023-03-19T01:00:14;101468.25;;;7.92;65.98
46045;BME280;31781;54.094;13.428;2023-03-19T01:02:14;101470.66;;;7.87;66.36
46045;BME280;31781;54.094;13.428;2023-03-19T01:04:17;101469.09;;;7.84;66.74
46045;BME280;31781;54.094;13.428;2023-03-19T01:06:19;101466.75;;;7.81;67.30
46045;BME280;31781;54.094;13.428;2023-03-19T01:08:21;101461.69;;;7.78;66.87
46045;BME280;31781;54.094;13.428;2023-03-19T01:10:23;101463.06;;;7.74;66.90
46045;BME280;31781;54.094;13.428;2023-03-19T01:12:25;101460.84;;;7.69;67.10
46045;BME280;31781;54.094;13.428;2023-03-19T01:14:27;101456.78;;;7.65;67.62
46045;BME280;31781;54.094;13.428;2023-03-19T01:16:31;101460.72;;;7.63;67.25
46045;BME280;31781;54.094;13.428;2023-03-19T01:18:33;101456.50;;;7.60;67.91
46045;BME280;31781;54.094;13.428;2023-03-19T01:20:35;101461.41;;;7.57;67.67
46045;BME280;31781;54.094;13.428;2023-03-19T01:22:38;101455.31;;;7.55;68.25
46045;BME280;31781;54.094;13.428;2023-03-19T01:24:42;101452.09;;;7.51;67.75
46045;BME280;31781;54.094;13.428;2023-03-19T01:26:43;101459.56;;;7.49;67.95
46045;BME280;31781;54.094;13.428;2023-03-19T01:28:46;101449.88;;;7.47;68.33
46045;BME280;31781;54.094;13.428;2023-03-19T01:30:48;101462.94;;;7.43;68.75
46045;BME280;31781;54.094;13.428;2023-03-19T01:32:51;101461.41;;;7.41;69.58
46045;BME280;31781;54.094;13.428;2023-03-19T01:34:53;101463.47;;;7.39;68.98
46045;BME280;31781;54.094;13.428;2023-03-19T01:36:56;101463.78;;;7.35;69.71
46045;BME280;31781;54.094;13.428;2023-03-19T01:38:58;101467.53;;;7.34;69.57
46045;BME280;31781;54.094;13.428;2023-03-19T01:41:01;101474.78;;;7.34;69.17
46045;BME280;31781;54.094;13.428;2023-03-19T01:43:14;101464.97;;;7.33;67.79
46045;BME280;31781;54.094;13.428;2023-03-19T01:45:33;101476.00;;;7.31;67.84
46045;BME280;31781;54.094;13.428;2023-03-19T01:47:38;101476.31;;;7.28;69.63
46045;BME280;31781;54.094;13.428;2023-03-19T01:49:46;101474.63;;;7.27;69.52
46045;BME280;31781;54.094;13.428;2023-03-19T01:51:48;101472.94;;;7.26;69.94
46045;BME280;31781;54.094;13.428;2023-03-19T01:53:52;101470.59;;;7.23;69.43
46045;BME280;31781;54.094;13.428;2023-03-19T01:55:59;101472.44;;;7.23;68.80
46045;BME280;31781;54.094;13.428;2023-03-19T01:58:04;101474.28;;;7.22;69.75
46045;BME280;31781;54.094;13.428;2023-03-19T02:00:08;101469.03;;;7.21;68.67
46045;BME280;31781;54.094;13.428;2023-03-19T02:02:17;101471.75;;;7.21;67.88
46045;BME280;31781;54.094;13.428;2023-03-19T02:04:23;101475.66;;;7.18;68.55
46045;BME280;31781;54.094;13.428;2023-03-19T02:06:29;101469.56;;;7.16;68.36
46045;BME280;31781;54.094;13.428;2023-03-19T02:08:32;101474.28;;;7.14;68.35
46045;BME280;31781;54.094;13.428;2023-03-19T02:10:35;101464.47;;;7.13;68.25
46045;BME280;31781;54.094;13.428;2023-03-19T02:12:38;101477.34;;;7.11;68.04
46045;BME280;31781;54.094;13.428;2023-03-19T02:14:40;101465.84;;;7.09;68.01
46045;BME280;31781;54.094;13.428;2023-03-19T02:16:43;101474.13;;;7.08;67.88
46045;BME280;31781;54.094;13.428;2023-03-19T02:18:45;101468.03;;;7.06;67.41
46045;BME280;31781;54.094;13.428;2023-03-19T02:20:50;101477.31;;;7.03;67.35
46045;BME280;31781;54.094;13.428;2023-03-19T02:23:01;101482.75;;;7.03;66.29
46045;BME280;31781;54.094;13.428;2023-03-19T02:25:10;101479.38;;;7.01;66.90
46045;BME280;31781;54.094;13.428;2023-03-19T02:27:15;101477.00;;;6.98;66.61
46045;BME280;31781;54.094;13.428;2023-03-19T02:29:16;101484.44;;;6.96;67.19
46045;BME280;31781;54.094;13.428;2023-03-19T02:31:19;101478.34;;;6.94;67.32
46045;BME280;31781;54.094;13.428;2023-03-19T02:33:21;101481.22;;;6.93;67.05
46045;BME280;31781;54.094;13.428;2023-03-19T02:35:23;101482.22;;;6.92;67.96
46045;BME280;31781;54.094;13.428;2023-03-19T02:37:27;101490.50;;;6.90;67.83
46045;BME280;31781;54.094;13.428;2023-03-19T02:39:40;101485.09;;;6.90;67.62
46045;BME280;31781;54.094;13.428;2023-03-19T02:41:44;101488.97;;;6.88;67.56
46045;BME280;31781;54.094;13.428;2023-03-19T02:43:48;101484.75;;;6.85;68.38
46045;BME280;31781;54.094;13.428;2023-03-19T02:45:50;101486.78;;;6.83;68.54
46045;BME280;31781;54.094;13.428;2023-03-19T02:47:52;101487.78;;;6.82;67.95
46045;BME280;31781;54.094;13.428;2023-03-19T02:49:55;101480.88;;;6.79;67.88
46045;BME280;31781;54.094;13.428;2023-03-19T02:51:58;101475.78;;;6.76;67.94
46045;BME280;31781;54.094;13.428;2023-03-19T02:54:00;101475.25;;;6.73;68.47
46045;BME280;31781;54.094;13.428;2023-03-19T02:56:02;101481.84;;;6.70;68.26
46045;BME280;31781;54.094;13.428;2023-03-19T02:58:05;101482.19;;;6.67;67.90
46045;BME280;31781;54.094;13.428;2023-03-19T03:00:11;101478.78;;;6.65;66.94
46045;BME280;31781;54.094;13.428;2023-03-19T03:02:13;101476.41;;;6.62;67.46
46045;BME280;31781;54.094;13.428;2023-03-19T03:04:15;101477.59;;;6.60;67.59
46045;BME280;31781;54.094;13.428;2023-03-19T03:06:17;101489.44;;;6.59;67.42
46045;BME280;31781;54.094;13.428;2023-03-19T03:08:18;101477.09;;;6.56;67.22
46045;BME280;31781;54.094;13.428;2023-03-19T03:10:20;101484.50;;;6.54;67.65
46045;BME280;31781;54.094;13.428;2023-03-19T03:12:22;101474.88;;;6.52;67.83
46045;BME280;31781;54.094;13.428;2023-03-19T03:14:25;101485.03;;;6.50;67.96
46045;BME280;31781;54.094;13.428;2023-03-19T03:16:30;101479.94;;;6.47;68.17
46045;BME280;31781;54.094;13.428;2023-03-19T03:18:34;101486.69;;;6.43;68.68
46045;BME280;31781;54.094;13.428;2023-03-19T03:20:35;101482.28;;;6.42;69.13
46045;BME280;31781;54.094;13.428;2023-03-19T03:22:39;101485.16;;;6.40;68.56
46045;BME280;31781;54.094;13.428;2023-03-19T03:24:41;101481.59;;;6.40;69.15
46045;BME280;31781;54.094;13.428;2023-03-19T03:26:46;101492.59;;;6.38;68.70
46045;BME280;31781;54.094;13.428;2023-03-19T03:28:48;101484.47;;;6.38;69.19
46045;BME280;31781;54.094;13.428;2023-03-19T03:30:49;101484.47;;;6.38;68.97
46045;BME280;31781;54.094;13.428;2023-03-19T03:32:53;101490.03;;;6.36;68.63
46045;BME280;31781;54.094;13.428;2023-03-19T03:34:57;101484.63;;;6.36;68.36
46045;BME280;31781;54.094;13.428;2023-03-19T03:37:01;101489.38;;;6.34;67.96
46045;BME280;31781;54.094;13.428;2023-03-19T03:39:04;101490.38;;;6.33;68.72
46045;BME280;31781;54.094;13.428;2023-03-19T03:41:06;101484.09;;;6.33;68.12
46045;BME280;31781;54.094;13.428;2023-03-19T03:43:09;101487.81;;;6.32;68.23
46045;BME280;31781;54.094;13.428;2023-03-19T03:45:12;101492.41;;;6.31;67.83
46045;BME280;31781;54.094;13.428;2023-03-19T03:47:14;101483.59;;;6.29;68.41
46045;BME280;31781;54.094;13.428;2023-03-19T03:49:17;101491.03;;;6.27;67.56
46045;BME280;31781;54.094;13.428;2023-03-19T03:51:19;101487.47;;;6.27;68.29
46045;BME280;31781;54.094;13.428;2023-03-19T03:53:21;101490.34;;;6.25;67.88
46045;BME280;31781;54.094;13.428;2023-03-19T03:55:22;101500.28;;;6.25;67.55
46045;BME280;31781;54.094;13.428;2023-03-19T03:57:24;101487.81;;;6.24;68.14
46045;BME280;31781;54.094;13.428;2023-03-19T03:59:29;101494.06;;;6.24;68.60
46045;BME280;31781;54.094;13.428;2023-03-19T04:01:32;101481.56;;;6.23;68.36
46045;BME280;31781;54.094;13.428;2023-03-19T04:03:33;101491.38;;;6.24;68.62
46045;BME280;31781;54.094;13.428;2023-03-19T04:05:37;101492.38;;;6.23;68.81
46045;BME280;31781;54.094;13.428;2023-03-19T04:07:38;101477.31;;;6.21;68.63
46045;BME280;31781;54.094;13.428;2023-03-19T04:09:40;101488.09;;;6.21;68.11
46045;BME280;31781;54.094;13.428;2023-03-19T04:11:42;101491.00;;;6.19;68.36
46045;BME280;31781;54.094;13.428;2023-03-19T04:13:44;101490.28;;;6.17;68.90
46045;BME280;31781;54.094;13.428;2023-03-19T04:15:46;101494.03;;;6.16;68.55
46045;BME280;31781;54.094;13.428;2023-03-19T04:17:48;101492.31;;;6.15;68.80
46045;BME280;31781;54.094;13.428;2023-03-19T04:19:51;101491.47;;;6.15;69.22
46045;BME280;31781;54.094;13.428;2023-03-19T04:21:54;101487.91;;;6.14;69.48
46045;BME280;31781;54.094;13.428;2023-03-19T04:23:57;101494.16;;;6.15;69.34
46045;BME280;31781;54.094;13.428;2023-03-19T04:26:00;101499.56;;;6.15;69.46
46045;BME280;31781;54.094;13.428;2023-03-19T04:28:02;101488.78;;;6.15;69.40
46045;BME280;31781;54.094;13.428;2023-03-19T04:30:05;101493.31;;;6.14;69.69
46045;BME280;31781;54.094;13.428;2023-03-19T04:32:07;101491.47;;;6.15;69.36
46045;BME280;31781;54.094;13.428;2023-03-19T04:34:08;101486.06;;;6.15;69.55
46045;BME280;31781;54.094;13.428;2023-03-19T04:36:10;101487.78;;;6.16;69.66
46045;BME280;31781;54.094;13.428;2023-03-19T04:38:15;101481.38;;;6.17;70.33
46045;BME280;31781;54.094;13.428;2023-03-19T04:40:17;101490.28;;;6.17;70.39
46045;BME280;31781;54.094;13.428;2023-03-19T04:42:19;101489.13;;;6.20;69.99
46045;BME280;31781;54.094;13.428;2023-03-19T04:44:20;101492.69;;;6.20;70.08
46045;BME280;31781;54.094;13.428;2023-03-19T04:46:22;101496.22;;;6.21;70.19
46045;BME280;31781;54.094;13.428;2023-03-19T04:48:24;101502.31;;;6.23;70.47
46045;BME280;31781;54.094;13.428;2023-03-19T04:50:27;101504.03;;;6.24;70.84
46045;BME280;31781;54.094;13.428;2023-03-19T04:52:29;101507.41;;;6.26;71.00
46045;BME280;31781;54.094;13.428;2023-03-19T04:54:32;101503.69;;;6.27;71.43
46045;BME280;31781;54.094;13.428;2023-03-19T04:56:34;101502.69;;;6.28;71.09
46045;BME280;31781;54.094;13.428;2023-03-19T04:58:37;101500.81;;;6.28;71.33
46045;BME280;31781;54.094;13.428;2023-03-19T05:00:40;101500.66;;;6.30;71.46
46045;BME280;31781;54.094;13.428;2023-03-19T05:02:42;101493.41;;;6.30;71.43
46045;BME280;31781;54.094;13.428;2023-03-19T05:04:44;101496.78;;;6.32;71.47
46045;BME280;31781;54.094;13.428;2023-03-19T05:06:45;101499.31;;;6.34;71.08
46045;BME280;31781;54.094;13.428;2023-03-19T05:08:47;101498.31;;;6.35;71.05
46045;BME280;31781;54.094;13.428;2023-03-19T05:10:51;101489.88;;;6.38;71.70
46045;BME280;31781;54.094;13.428;2023-03-19T05:12:53;101496.81;;;6.41;71.35
46045;BME280;31781;54.094;13.428;2023-03-19T05:14:55;101493.78;;;6.44;71.52
46045;BME280;31781;54.094;13.428;2023-03-19T05:16:58;101497.19;;;6.46;72.14
46045;BME280;31781;54.094;13.428;2023-03-19T05:19:00;101501.41;;;6.48;72.57
46045;BME280;31781;54.094;13.428;2023-03-19T05:21:02;101499.41;;;6.50;72.30
46045;BME280;31781;54.094;13.428;2023-03-19T05:23:04;101497.34;;;6.52;72.61
46045;BME280;31781;54.094;13.428;2023-03-19T05:25:06;101491.63;;;6.55;72.74
46045;BME280;31781;54.094;13.428;2023-03-19T05:27:10;101496.88;;;6.57;72.39
46045;BME280;31781;54.094;13.428;2023-03-19T05:29:11;101498.38;;;6.59;72.55
46045;BME280;31781;54.094;13.428;2023-03-19T05:31:13;101499.09;;;6.61;72.54
46045;BME280;31781;54.094;13.428;2023-03-19T05:33:15;101500.59;;;6.64;73.02
46045;BME280;31781;54.094;13.428;2023-03-19T05:35:17;101505.69;;;6.67;73.16
46045;BME280;31781;54.094;13.428;2023-03-19T05:37:19;101509.06;;;6.69;72.78
46045;BME280;31781;54.094;13.428;2023-03-19T05:39:21;101513.31;;;6.71;73.09
46045;BME280;31781;54.094;13.428;2023-03-19T05:41:23;101508.56;;;6.73;72.90
46045;BME280;31781;54.094;13.428;2023-03-19T05:43:26;101509.94;;;6.77;73.12
46045;BME280;31781;54.094;13.428;2023-03-19T05:45:29;101514.16;;;6.80;72.83
46045;BME280;31781;54.094;13.428;2023-03-19T05:47:32;101516.34;;;6.84;73.20
46045;BME280;31781;54.094;13.428;2023-03-19T05:49:35;101519.56;;;6.88;72.93
46045;BME280;31781;54.094;13.428;2023-03-19T05:51:37;101514.69;;;6.92;73.22
46045;BME280;31781;54.094;13.428;2023-03-19T05:53:39;101518.75;;;6.96;73.22
46045;BME280;31781;54.094;13.428;2023-03-19T05:55:41;101520.09;;;7.00;73.53
46045;BME280;31781;54.094;13.428;2023-03-19T05:57:44;101522.31;;;7.04;74.65
46045;BME280;31781;54.094;13.428;2023-03-19T05:59:47;101521.81;;;7.09;74.37
46045;BME280;31781;54.094;13.428;2023-03-19T06:01:49;101520.47;;;7.13;74.82
46045;BME280;31781;54.094;13.428;2023-03-19T06:03:50;101523.50;;;7.18;74.58
46045;BME280;31781;54.094;13.428;2023-03-19T06:05:52;101523.84;;;7.23;74.83
46045;BME280;31781;54.094;13.428;2023-03-19T06:07:54;101515.56;;;7.24;74.54
46045;BME280;31781;54.094;13.428;2023-03-19T06:09:56;101512.19;;;7.30;74.82
46045;BME280;31781;54.094;13.428;2023-03-19T06:11:58;101517.09;;;7.35;75.45
46045;BME280;31781;54.094;13.428;2023-03-19T06:14:01;101516.56;;;7.40;74.94
46045;BME280;31781;54.094;13.428;2023-03-19T06:16:05;101513.38;;;7.44;75.32
46045;BME280;31781;54.094;13.428;2023-03-19T06:18:07;101514.56;;;7.50;75.73
46045;BME280;31781;54.094;13.428;2023-03-19T06:20:10;101514.03;;;7.54;76.18
46045;BME280;31781;54.094;13.428;2023-03-19T06:22:12;101509.97;;;7.58;75.68
46045;BME280;31781;54.094;13.428;2023-03-19T06:24:14;101509.28;;;7.64;76.16
46045;BME280;31781;54.094;13.428;2023-03-19T06:26:15;101501.66;;;7.68;75.88
46045;BME280;31781;54.094;13.428;2023-03-19T06:28:17;101509.25;;;7.72;76.38
46045;BME280;31781;54.094;13.428;2023-03-19T06:30:19;101506.03;;;7.77;76.48
46045;BME280;31781;54.094;13.428;2023-03-19T06:32:22;101495.53;;;7.82;77.00
46045;BME280;31781;54.094;13.428;2023-03-19T06:34:24;101496.69;;;7.88;77.04
46045;BME280;31781;54.094;13.428;2023-03-19T06:36:26;101498.91;;;7.92;77.47
46045;BME280;31781;54.094;13.428;2023-03-19T06:38:28;101500.09;;;7.98;77.24
46045;BME280;31781;54.094;13.428;2023-03-19T06:40:30;101499.53;;;8.02;77.79
46045;BME280;31781;54.094;13.428;2023-03-19T06:42:33;101497.31;;;8.06;77.46
46045;BME280;31781;54.094;13.428;2023-03-19T06:44:35;101495.94;;;8.10;77.52
46045;BME280;31781;54.094;13.428;2023-03-19T06:46:38;101499.34;;;8.12;77.42
46045;BME280;31781;54.094;13.428;2023-03-19T06:48:44;101495.44;;;8.14;76.68
46045;BME280;31781;54.094;13.428;2023-03-19T06:50:48;101499.84;;;8.15;77.23
46045;BME280;31781;54.094;13.428;2023-03-19T06:52:52;101500.50;;;8.17;77.28
46045;BME280;31781;54.094;13.428;2023-03-19T06:54:53;101503.91;;;8.19;76.91
46045;BME280;31781;54.094;13.428;2023-03-19T06:56:55;101500.16;;;8.20;76.73
46045;BME280;31781;54.094;13.428;2023-03-19T06:58:57;101491.19;;;8.20;76.52
46045;BME280;31781;54.094;13.428;2023-03-19T07:00:59;101492.88;;;8.21;76.47
46045;BME280;31781;54.094;13.428;2023-03-19T07:03:04;101506.41;;;8.21;76.55
46045;BME280;31781;54.094;13.428;2023-03-19T07:05:08;101511.69;;;8.22;76.42
46045;BME280;31781;54.094;13.428;2023-03-19T07:07:12;101507.97;;;8.23;76.39
46045;BME280;31781;54.094;13.428;2023-03-19T07:09:14;101514.22;;;8.24;76.95
46045;BME280;31781;54.094;13.428;2023-03-19T07:11:16;101517.44;;;8.27;76.69
46045;BME280;31781;54.094;13.428;2023-03-19T07:13:17;101524.41;;;8.30;76.80
46045;BME280;31781;54.094;13.428;2023-03-19T07:15:19;101523.03;;;8.34;76.77
46045;BME280;31781;54.094;13.428;2023-03-19T07:17:21;101519.78;;;8.39;76.72
46045;BME280;31781;54.094;13.428;2023-03-19T07:19:23;101523.00;;;8.42;76.87
46045;BME280;31781;54.094;13.428;2023-03-19T07:21:26;101529.72;;;8.46;77.33
46045;BME280;31781;54.094;13.428;2023-03-19T07:23:28;101529.22;;;8.51;76.93
46045;BME280;31781;54.094;13.428;2023-03-19T07:25:32;101523.25;;;8.55;77.00
46045;BME280;31781;54.094;13.428;2023-03-19T07:27:35;101523.59;;;8.60;77.29
46045;BME280;31781;54.094;13.428;2023-03-19T07:29:37;101514.88;;;8.65;77.56
46045;BME280;31781;54.094;13.428;2023-03-19T07:31:39;101519.78;;;8.69;77.04
46045;BME280;31781;54.094;13.428;2023-03-19T07:33:41;101521.97;;;8.74;77.68
46045;BME280;31781;54.094;13.428;2023-03-19T07:35:43;101527.88;;;8.77;77.91
46045;BME280;31781;54.094;13.428;2023-03-19T07:37:46;101527.16;;;8.84;78.12
46045;BME280;31781;54.094;13.428;2023-03-19T07:39:47;101537.50;;;8.88;78.90
46045;BME280;31781;54.094;13.428;2023-03-19T07:41:49;101538.66;;;8.94;78.21
46045;BME280;31781;54.094;13.428;2023-03-19T07:43:51;101537.09;;;8.99;78.79
46045;BME280;31781;54.094;13.428;2023-03-19T07:45:53;101533.84;;;9.04;79.20
46045;BME280;31781;54.094;13.428;2023-03-19T07:47:54;101539.59;;;9.09;79.09
46045;BME280;31781;54.094;13.428;2023-03-19T07:49:56;101530.03;;;9.13;79.32
46045;BME280;31781;54.094;13.428;2023-03-19T07:51:58;101532.41;;;9.16;78.77
46045;BME280;31781;54.094;13.428;2023-03-19T07:54:01;101533.38;;;9.23;78.78
46045;BME280;31781;54.094;13.428;2023-03-19T07:56:03;101528.22;;;9.28;79.25
46045;BME280;31781;54.094;13.428;2023-03-19T07:58:05;101529.38;;;9.34;78.84
46045;BME280;31781;54.094;13.428;2023-03-19T08:00:08;101525.28;;;9.38;78.99
46045;BME280;31781;54.094;13.428;2023-03-19T08:02:11;101519.09;;;9.44;78.75
46045;BME280;31781;54.094;13.428;2023-03-19T08:04:14;101513.97;;;9.49;78.34
46045;BME280;31781;54.094;13.428;2023-03-19T08:06:16;101519.88;;;9.52;78.17
46045;BME280;31781;54.094;13.428;2023-03-19T08:08:19;101517.66;;;9.56;77.74
46045;BME280;31781;54.094;13.428;2023-03-19T08:10:23;101516.25;;;9.60;78.36
46045;BME280;31781;54.094;13.428;2023-03-19T08:12:24;101512.13;;;9.64;78.46
46045;BME280;31781;54.094;13.428;2023-03-19T08:14:26;101518.91;;;9.68;78.56
46045;BME280;31781;54.094;13.428;2023-03-19T08:16:28;101516.44;;;9.73;78.39
46045;BME280;31781;54.094;13.428;2023-03-19T08:18:29;101523.03;;;9.78;79.16
46045;BME280;31781;54.094;13.428;2023-03-19T08:20:33;101520.41;;;9.85;78.39
46045;BME280;31781;54.094;13.428;2023-03-19T08:22:37;101532.41;;;9.91;78.95
46045;BME280;31781;54.094;13.428;2023-03-19T08:24:39;101533.34;;;9.98;78.70
46045;BME280;31781;54.094;13.428;2023-03-19T08:26:42;101526.34;;;10.03;78.71
46045;BME280;31781;54.094;13.428;2023-03-19T08:28:44;101521.00;;;10.10;78.08
46045;BME280;31781;54.094;13.428;2023-03-19T08:30:46;101523.66;;;10.18;78.09
46045;BME280;31781;54.094;13.428;2023-03-19T08:32:48;101529.19;;;10.24;78.16
46045;BME280;31781;54.094;13.428;2023-03-19T08:34:49;101522.16;;;10.30;78.77
46045;BME280;31781;54.094;13.428;2023-03-19T08:36:52;101525.81;;;10.37;77.51
46045;BME280;31781;54.094;13.428;2023-03-19T08:38:54;101523.16;;;10.44;77.27
46045;BME280;31781;54.094;13.428;2023-03-19T08:40:56;101525.78;;;10.52;77.39
46045;BME280;31781;54.094;13.428;2023-03-19T08:42:59;101523.16;;;10.58;77.47
46045;BME280;31781;54.094;13.428;2023-03-19T08:45:01;101522.38;;;10.64;76.38
46045;BME280;31781;54.094;13.428;2023-03-19T08:47:03;101523.31;;;10.71;76.78
46045;BME280;31781;54.094;13.428;2023-03-19T08:49:05;101515.25;;;10.78;76.29
46045;BME280;31781;54.094;13.428;2023-03-19T08:51:07;101510.03;;;10.83;76.65
46045;BME280;31781;54.094;13.428;2023-03-19T08:53:08;101517.47;;;10.89;75.80
46045;BME280;31781;54.094;13.428;2023-03-19T08:55:14;101519.41;;;10.95;76.13
46045;BME280;31781;54.094;13.428;2023-03-19T08:57:16;101521.34;;;11.01;76.36
46045;BME280;31781;54.094;13.428;2023-03-19T08:59:19;101523.94;;;11.09;76.64
46045;BME280;31781;54.094;13.428;2023-03-19T09:01:20;101526.72;;;11.16;76.52
46045;BME280;31781;54.094;13.428;2023-03-19T09:03:24;101520.31;;;11.23;76.00
46045;BME280;31781;54.094;13.428;2023-03-19T09:05:25;101523.97;;;11.31;75.33
46045;BME280;31781;54.094;13.428;2023-03-19T09:07:30;101517.53;;;11.38;76.20
46045;BME280;31781;54.094;13.428;2023-03-19T09:09:31;101520.97;;;11.47;75.44
46045;BME280;31781;54.094;13.428;2023-03-19T09:11:33;101513.50;;;11.55;75.99
46045;BME280;31781;54.094;13.428;2023-03-19T09:13:35;101521.53;;;11.63;75.60
46045;BME280;31781;54.094;13.428;2023-03-19T09:15:39;101518.31;;;11.75;75.89
46045;BME280;31781;54.094;13.428;2023-03-19T09:17:40;101516.31;;;11.90;75.59
46045;BME280;31781;54.094;13.428;2023-03-19T09:19:42;101512.19;;;12.00;75.58
46045;BME280;31781;54.094;13.428;2023-03-19T09:21:43;101522.75;;;12.10;76.14
46045;BME280;31781;54.094;13.428;2023-03-19T09:23:45;101513.38;;;12.19;74.80
46045;BME280;31781;54.094;13.428;2023-03-19T09:25:47;101515.91;;;12.27;74.74
46045;BME280;31781;54.094;13.428;2023-03-19T09:27:49;101518.28;;;12.37;74.10
46045;BME280;31781;54.094;13.428;2023-03-19T09:29:51;101515.00;;;12.48;73.69
46045;BME280;31781;54.094;13.428;2023-03-19T09:31:55;101519.66;;;12.60;73.02
46045;BME280;31781;54.094;13.428;2023-03-19T09:33:56;101516.75;;;12.75;73.66
46045;BME280;31781;54.094;13.428;2023-03-19T09:35:58;101520.00;;;12.92;73.33
46045;BME280;31781;54.094;13.428;2023-03-19T09:38:00;101520.28;;;13.10;72.84
46045;BME280;31781;54.094;13.428;2023-03-19T09:40:03;101516.50;;;13.31;73.12
46045;BME280;31781;54.094;13.428;2023-03-19T09:42:16;101516.75;;;13.49;71.79
46045;BME280;31781;54.094;13.428;2023-03-19T09:44:27;101520.75;;;13.73;71.52
46045;BME280;31781;54.094;13.428;2023-03-19T09:46:37;101517.16;;;13.98;70.74
46045;BME280;31781;54.094;13.428;2023-03-19T09:48:47;101521.34;;;14.14;69.57
46045;BME280;31781;54.094;13.428;2023-03-19T09:50:50;101516.88;;;14.33;70.05
46045;BME280;31781;54.094;13.428;2023-03-19T09:52:57;101518.31;;;14.55;68.96
46045;BME280;31781;54.094;13.428;2023-03-19T09:55:08;101522.66;;;14.76;68.96
46045;BME280;31781;54.094;13.428;2023-03-19T09:57:12;101530.59;;;14.90;66.86
46045;BME280;31781;54.094;13.428;2023-03-19T09:59:15;101527.56;;;15.05;66.96
46045;BME280;31781;54.094;13.428;2023-03-19T10:01:23;101522.84;;;15.19;66.87
46045;BME280;31781;54.094;13.428;2023-03-19T10:03:41;101528.03;;;15.33;66.57
46045;BME280;31781;54.094;13.428;2023-03-19T10:05:51;101520.75;;;15.45;65.69
46045;BME280;31781;54.094;13.428;2023-03-19T10:08:16;101522.59;;;15.58;65.05
46045;BME280;31781;54.094;13.428;2023-03-19T10:10:34;101521.63;;;15.71;64.89
46045;BME280;31781;54.094;13.428;2023-03-19T10:12:50;101521.53;;;15.84;63.24
46045;BME280;31781;54.094;13.428;2023-03-19T10:15:16;101520.72;;;16.01;63.67
46045;BME280;31781;54.094;13.428;2023-03-19T10:17:24;101525.25;;;16.14;61.75
46045;BME280;31781;54.094;13.428;2023-03-19T10:19:36;101523.38;;;16.33;62.01
46045;BME280;31781;54.094;13.428;2023-03-19T10:21:47;101523.84;;;16.48;60.80
46045;BME280;31781;54.094;13.428;2023-03-19T10:23:53;101520.13;;;16.61;59.97
46045;BME280;31781;54.094;13.428;2023-03-19T10:25:58;101517.44;;;16.72;59.56
46045;BME280;31781;54.094;13.428;2023-03-19T10:28:06;101522.75;;;16.85;59.33
46045;BME280;31781;54.094;13.428;2023-03-19T10:30:13;101526.41;;;16.97;58.13
46045;BME280;31781;54.094;13.428;2023-03-19T10:32:18;101516.50;;;17.08;57.40
46045;BME280;31781;54.094;13.428;2023-03-19T10:34:27;101516.56;;;17.20;58.52
46045;BME280;31781;54.094;13.428;2023-03-19T10:36:32;101515.63;;;17.26;57.25
46045;BME280;31781;54.094;13.428;2023-03-19T10:38:41;101519.13;;;17.33;58.37
46045;BME280;31781;54.094;13.428;2023-03-19T10:40:50;101523.91;;;17.37;57.41
46045;BME280;31781;54.094;13.428;2023-03-19T10:43:05;101521.53;;;17.41;57.42